Snow/Ice From: 16-12-2017 16:00 Until: 17-12-2017 16:00 warning for: Snow/Ice Level: Yellow info button

Although rather usual in this region, locally or potentially dangerous phenomena are expected. (such as local winds, summer thunderstorms, rising streams or high waves) Be aware and pay attention to the latest weather updates, especially if you carry out activities exposed to weather or close to a stream or shoreline. 


Meteo18 Weather Cam more information Meteo18 Weather Cam


Thunder radar more information blitzortung!


warning for Snow/Ice more information rain snow radar


Visit our other weather sites:

Template documentation
and downloads

And another site



Weather Underground History page Text

Daily Summary for February 15, 2016 Units:  Metric    English   Both
« Previous Day
Next Day »
Daily Weekly Monthly Yearly Custom
  High: Low: Average:
Temperature: 4.8 °C 1.4 °C 2.7 °C
Dew Point: 2.1 °C -1.5 °C 0.5 °C
Humidity: 95 % 69 % 85 %
Wind Speed: 24.1 km/h 0.0 km/h 7.5 km/h
Wind Gust: 32.2 km/h - -
Wind:- - ENE
Pressure: 1027.7 hPa 1002.3 hPa -
Precipitation: 0.0 mm    
Historical Graphs
 
 
Tabular Data for February 15, 2016
Time Temperature Dew Point Pressure Wind Wind Speed Wind Gust Humidity Rainfall Rate (Hourly)
00:02 3.4 °C 1.9 °C 1002.3 hPa East 1.6 km/h 16.1 km/h 90 % 0.0 mm
00:07 3.2 °C 1.9 °C 1002.6 hPa NE 4.8 km/h 14.5 km/h 91 % 0.0 mm
00:12 3.1 °C 1.8 °C 1002.6 hPa East 6.4 km/h 14.5 km/h 91 % 0.0 mm
00:17 2.9 °C 1.6 °C 1002.9 hPa Calm   14.5 km/h 91 % 0.0 mm
00:27 2.7 °C 1.5 °C 1002.9 hPa ENE 1.6 km/h 9.7 km/h 92 % 0.0 mm
00:32 2.6 °C 1.4 °C 1002.9 hPa East 1.6 km/h 9.7 km/h 92 % 0.0 mm
00:37 2.4 °C 1.2 °C 1002.9 hPa ENE 1.6 km/h 9.7 km/h 92 % 0.0 mm
00:42 2.3 °C 1.3 °C 1002.9 hPa NE 1.6 km/h 9.7 km/h 93 % 0.0 mm
00:52 2.1 °C 1.1 °C 1003.3 hPa NE 6.4 km/h 8.0 km/h 93 % 0.0 mm
00:57 2.0 °C 1.0 °C 1003.6 hPa NE 6.4 km/h 8.0 km/h 93 % 0.0 mm
01:02 2.0 °C 1.1 °C 1003.6 hPa ENE 1.6 km/h 8.0 km/h 94 % 0.0 mm
01:07 1.9 °C 1.0 °C 1003.6 hPa East 1.6 km/h 8.0 km/h 94 % 0.0 mm
01:12 1.9 °C 1.0 °C 1003.9 hPa ENE 4.8 km/h 9.7 km/h 94 % 0.0 mm
01:17 1.9 °C 1.0 °C 1003.9 hPa NE 4.8 km/h 9.7 km/h 94 % 0.0 mm
01:22 1.9 °C 1.0 °C 1003.9 hPa East 4.8 km/h 9.7 km/h 94 % 0.0 mm
01:27 1.9 °C 1.0 °C 1003.9 hPa NNE 1.6 km/h 9.7 km/h 94 % 0.0 mm
01:32 1.9 °C 1.0 °C 1004.3 hPa ESE 3.2 km/h 9.7 km/h 94 % 0.0 mm
01:37 1.9 °C 1.0 °C 1004.3 hPa NE 6.4 km/h 9.7 km/h 94 % 0.0 mm
01:42 2.0 °C 1.3 °C 1004.3 hPa ENE 4.8 km/h 11.3 km/h 95 % 0.0 mm
01:47 2.1 °C 1.2 °C 1004.6 hPa East 11.3 km/h 12.9 km/h 94 % 0.0 mm
01:52 2.2 °C 1.3 °C 1004.6 hPa NNE 8.0 km/h 14.5 km/h 94 % 0.0 mm
01:57 2.2 °C 1.3 °C 1004.6 hPa ENE 8.0 km/h 20.9 km/h 94 % 0.0 mm
02:02 2.3 °C 1.4 °C 1004.6 hPa NE 9.7 km/h 20.9 km/h 94 % 0.0 mm
02:07 2.3 °C 1.3 °C 1004.6 hPa ENE 12.9 km/h 20.9 km/h 93 % 0.0 mm
02:12 2.3 °C 1.3 °C 1005.0 hPa NE 12.9 km/h 20.9 km/h 93 % 0.0 mm
02:17 2.3 °C 1.3 °C 1005.0 hPa NE 8.0 km/h 19.3 km/h 93 % 0.0 mm
02:22 2.2 °C 1.2 °C 1005.0 hPa East 3.2 km/h 19.3 km/h 93 % 0.0 mm
02:27 2.0 °C 1.0 °C 1005.3 hPa ESE 4.8 km/h 17.7 km/h 93 % 0.0 mm
02:37 2.0 °C 1.1 °C 1005.3 hPa SE 4.8 km/h 16.1 km/h 94 % 0.0 mm
02:42 2.1 °C 1.2 °C 1005.6 hPa NE 6.4 km/h 16.1 km/h 94 % 0.0 mm
02:47 2.0 °C 1.0 °C 1005.6 hPa NE 8.0 km/h 16.1 km/h 93 % 0.0 mm
02:52 2.0 °C 1.0 °C 1006.0 hPa NE 1.6 km/h 14.5 km/h 93 % 0.0 mm
02:57 2.0 °C 1.0 °C 1006.0 hPa NE 3.2 km/h 14.5 km/h 93 % 0.0 mm
03:02 2.0 °C 1.1 °C 1006.0 hPa East 4.8 km/h 12.9 km/h 94 % 0.0 mm
03:07 2.1 °C 1.2 °C 1006.0 hPa ENE 1.6 km/h 12.9 km/h 94 % 0.0 mm
03:12 2.1 °C 1.2 °C 1006.0 hPa NE 4.8 km/h 14.5 km/h 94 % 0.0 mm
03:17 2.2 °C 1.2 °C 1006.3 hPa ENE 3.2 km/h 14.5 km/h 93 % 0.0 mm
03:22 2.2 °C 1.2 °C 1006.3 hPa ENE 1.6 km/h 14.5 km/h 93 % 0.0 mm
03:27 2.2 °C 1.2 °C 1006.3 hPa NE 11.3 km/h 14.5 km/h 93 % 0.0 mm
03:32 2.2 °C 1.0 °C 1006.3 hPa ENE 3.2 km/h 14.5 km/h 92 % 0.0 mm
03:37 2.1 °C 1.1 °C 1006.3 hPa NE 6.4 km/h 14.5 km/h 93 % 0.0 mm
03:42 2.1 °C 1.1 °C 1006.3 hPa ENE 1.6 km/h 12.9 km/h 93 % 0.0 mm
03:47 2.2 °C 1.2 °C 1006.7 hPa ENE 4.8 km/h 11.3 km/h 93 % 0.0 mm
03:52 2.2 °C 1.3 °C 1006.7 hPa Calm   8.0 km/h 94 % 0.0 mm
03:57 2.2 °C 1.3 °C 1006.7 hPa ENE 1.6 km/h 8.0 km/h 94 % 0.0 mm
04:02 2.2 °C 1.3 °C 1006.7 hPa NE 4.8 km/h 8.0 km/h 94 % 0.0 mm
04:07 2.2 °C 1.3 °C 1006.7 hPa NE 3.2 km/h 8.0 km/h 94 % 0.0 mm
04:12 2.2 °C 1.3 °C 1007.0 hPa NE 4.8 km/h 8.0 km/h 94 % 0.0 mm
04:17 2.2 °C 1.3 °C 1007.0 hPa ENE 3.2 km/h 8.0 km/h 94 % 0.0 mm
04:22 2.2 °C 1.2 °C 1007.0 hPa ENE 6.4 km/h 11.3 km/h 93 % 0.0 mm
04:27 2.2 °C 1.2 °C 1007.0 hPa ENE 3.2 km/h 11.3 km/h 93 % 0.0 mm
04:32 2.2 °C 1.2 °C 1007.0 hPa SE 6.4 km/h 14.5 km/h 93 % 0.0 mm
04:37 2.3 °C 1.3 °C 1007.3 hPa ESE 4.8 km/h 14.5 km/h 93 % 0.0 mm
04:42 2.3 °C 1.3 °C 1007.3 hPa NE 3.2 km/h 14.5 km/h 93 % 0.0 mm
04:47 2.3 °C 1.3 °C 1007.3 hPa ENE 6.4 km/h 14.5 km/h 93 % 0.0 mm
04:52 2.3 °C 1.3 °C 1007.3 hPa ENE 4.8 km/h 14.5 km/h 93 % 0.0 mm
04:57 2.3 °C 1.3 °C 1007.7 hPa ENE 8.0 km/h 11.3 km/h 93 % 0.0 mm
05:02 2.3 °C 1.3 °C 1007.7 hPa East 8.0 km/h 11.3 km/h 93 % 0.0 mm
05:17 2.3 °C 1.0 °C 1008.0 hPa ENE 12.9 km/h 20.9 km/h 91 % 0.0 mm
05:22 2.3 °C 1.1 °C 1008.0 hPa NE 6.4 km/h 20.9 km/h 92 % 0.0 mm
05:27 2.3 °C 1.0 °C 1008.0 hPa East 6.4 km/h 20.9 km/h 91 % 0.0 mm
05:32 2.3 °C 1.1 °C 1008.0 hPa NE 9.7 km/h 19.3 km/h 92 % 0.0 mm
05:37 2.3 °C 1.1 °C 1008.4 hPa ENE 9.7 km/h 17.7 km/h 92 % 0.0 mm
05:42 2.3 °C 1.1 °C 1008.4 hPa NE 11.3 km/h 17.7 km/h 92 % 0.0 mm
05:47 2.3 °C 1.1 °C 1008.4 hPa ENE 6.4 km/h 17.7 km/h 92 % 0.0 mm
05:52 2.3 °C 1.1 °C 1008.4 hPa NE 8.0 km/h 17.7 km/h 92 % 0.0 mm
06:02 2.3 °C 1.0 °C 1008.7 hPa NNE 6.4 km/h 17.7 km/h 91 % 0.0 mm
06:07 2.3 °C 1.0 °C 1009.0 hPa SE 3.2 km/h 14.5 km/h 91 % 0.0 mm
06:12 2.3 °C 1.0 °C 1009.0 hPa ENE 1.6 km/h 14.5 km/h 91 % 0.0 mm
06:17 2.2 °C 1.0 °C 1009.0 hPa East 1.6 km/h 14.5 km/h 92 % 0.0 mm
06:22 2.2 °C 1.0 °C 1009.4 hPa NE 4.8 km/h 14.5 km/h 92 % 0.0 mm
06:27 2.2 °C 1.0 °C 1009.4 hPa East 3.2 km/h 11.3 km/h 92 % 0.0 mm
06:32 2.2 °C 1.2 °C 1009.4 hPa East 3.2 km/h 11.3 km/h 93 % 0.0 mm
06:37 2.2 °C 1.2 °C 1009.7 hPa East 3.2 km/h 9.7 km/h 93 % 0.0 mm
06:42 2.2 °C 1.2 °C 1009.7 hPa ESE 4.8 km/h 9.7 km/h 93 % 0.0 mm
06:47 2.2 °C 1.2 °C 1009.7 hPa NE 4.8 km/h 14.5 km/h 93 % 0.0 mm
06:52 2.2 °C 1.2 °C 1010.0 hPa NE 11.3 km/h 14.5 km/h 93 % 0.0 mm
06:57 2.2 °C 1.2 °C 1010.0 hPa East 6.4 km/h 14.5 km/h 93 % 0.0 mm
07:02 2.2 °C 1.2 °C 1010.0 hPa East 3.2 km/h 14.5 km/h 93 % 0.0 mm
07:07 2.2 °C 1.2 °C 1010.0 hPa NE 6.4 km/h 12.9 km/h 93 % 0.0 mm
07:12 2.2 °C 1.0 °C 1010.0 hPa ENE 4.8 km/h 12.9 km/h 92 % 0.0 mm
07:17 2.2 °C 1.0 °C 1010.4 hPa NE 3.2 km/h 14.5 km/h 92 % 0.0 mm
07:22 2.2 °C 1.0 °C 1010.4 hPa NE 4.8 km/h 14.5 km/h 92 % 0.0 mm
07:27 2.2 °C 0.9 °C 1010.4 hPa East 9.7 km/h 14.5 km/h 91 % 0.0 mm
07:32 2.2 °C 0.7 °C 1010.4 hPa SE 3.2 km/h 14.5 km/h 90 % 0.0 mm
07:37 2.2 °C 0.7 °C 1010.7 hPa NE 8.0 km/h 17.7 km/h 90 % 0.0 mm
07:42 2.2 °C 0.7 °C 1010.7 hPa ENE 9.7 km/h 19.3 km/h 90 % 0.0 mm
07:47 2.2 °C 0.6 °C 1010.7 hPa ENE 8.0 km/h 19.3 km/h 89 % 0.0 mm
07:52 2.2 °C 0.6 °C 1010.7 hPa NE 6.4 km/h 19.3 km/h 89 % 0.0 mm
07:57 2.2 °C 0.6 °C 1011.1 hPa NE 6.4 km/h 14.5 km/h 89 % 0.0 mm
08:02 2.2 °C 0.6 °C 1011.1 hPa ENE 3.2 km/h 17.7 km/h 89 % 0.0 mm
08:12 2.2 °C 0.6 °C 1011.1 hPa ENE 4.8 km/h 17.7 km/h 89 % 0.0 mm
08:17 2.1 °C 0.5 °C 1011.1 hPa NE 3.2 km/h 11.3 km/h 89 % 0.0 mm
08:22 2.1 °C 0.5 °C 1011.4 hPa North 6.4 km/h 11.3 km/h 89 % 0.0 mm
08:32 2.2 °C 0.7 °C 1011.7 hPa East 16.1 km/h 16.1 km/h 90 % 0.0 mm
08:37 2.2 °C 0.7 °C 1011.7 hPa ENE 3.2 km/h 11.3 km/h 90 % 0.0 mm
08:42 2.3 °C 0.8 °C 1012.1 hPa ENE 4.8 km/h 17.7 km/h 90 % 0.0 mm
08:47 2.4 °C 0.9 °C 1012.1 hPa SE 4.8 km/h 17.7 km/h 90 % 0.0 mm
08:52 2.4 °C 0.9 °C 1012.1 hPa ENE 9.7 km/h 17.7 km/h 90 % 0.0 mm
08:57 2.4 °C 0.9 °C 1012.1 hPa ENE 9.7 km/h 19.3 km/h 90 % 0.0 mm
09:02 2.4 °C 0.9 °C 1012.1 hPa NE 8.0 km/h 19.3 km/h 90 % 0.0 mm
09:07 2.4 °C 0.9 °C 1012.4 hPa NE 12.9 km/h 19.3 km/h 90 % 0.0 mm
09:12 2.4 °C 0.9 °C 1012.4 hPa NE 4.8 km/h 17.7 km/h 90 % 0.0 mm
09:17 2.4 °C 1.1 °C 1012.8 hPa NNE 9.7 km/h 17.7 km/h 91 % 0.0 mm
09:22 2.5 °C 1.2 °C 1012.8 hPa ENE 8.0 km/h 17.7 km/h 91 % 0.0 mm
09:32 2.5 °C 1.2 °C 1012.8 hPa ENE 4.8 km/h 16.1 km/h 91 % 0.0 mm
09:37 2.5 °C 1.3 °C 1013.1 hPa NE 9.7 km/h 20.9 km/h 92 % 0.0 mm
09:42 2.6 °C 1.4 °C 1013.1 hPa ENE 12.9 km/h 20.9 km/h 92 % 0.0 mm
09:47 2.7 °C 1.5 °C 1013.1 hPa East 3.2 km/h 20.9 km/h 92 % 0.0 mm
09:52 2.7 °C 1.5 °C 1013.1 hPa ENE 11.3 km/h 17.7 km/h 92 % 0.0 mm
09:57 2.8 °C 1.6 °C 1013.4 hPa ESE 4.8 km/h 17.7 km/h 92 % 0.0 mm
10:02 2.8 °C 1.6 °C 1013.4 hPa NE 9.7 km/h 17.7 km/h 92 % 0.0 mm
10:07 2.9 °C 1.9 °C 1013.8 hPa NNE 11.3 km/h 24.1 km/h 93 % 0.0 mm
10:12 2.8 °C 1.6 °C 1013.8 hPa NNE 14.5 km/h 24.1 km/h 92 % 0.0 mm
10:17 2.9 °C 1.7 °C 1013.8 hPa ENE 12.9 km/h 20.9 km/h 92 % 0.0 mm
10:22 2.8 °C 1.6 °C 1013.8 hPa NE 14.5 km/h 22.5 km/h 92 % 0.0 mm
10:27 2.8 °C 1.6 °C 1014.1 hPa NE 8.0 km/h 22.5 km/h 92 % 0.0 mm
10:32 2.8 °C 1.6 °C 1014.1 hPa East 14.5 km/h 22.5 km/h 92 % 0.0 mm
10:37 2.9 °C 1.6 °C 1014.1 hPa SSE 1.6 km/h 22.5 km/h 91 % 0.0 mm
10:42 2.9 °C 1.6 °C 1014.4 hPa East 1.6 km/h 22.5 km/h 91 % 0.0 mm
10:47 2.9 °C 1.7 °C 1014.4 hPa East 9.7 km/h 27.4 km/h 92 % 0.0 mm
10:52 2.9 °C 1.6 °C 1014.4 hPa NE 12.9 km/h 27.4 km/h 91 % 0.0 mm
10:57 2.9 °C 1.6 °C 1014.4 hPa East 8.0 km/h 27.4 km/h 91 % 0.0 mm
11:02 2.9 °C 1.7 °C 1014.8 hPa ENE 9.7 km/h 24.1 km/h 92 % 0.0 mm
11:07 2.9 °C 1.6 °C 1014.8 hPa East 6.4 km/h 24.1 km/h 91 % 0.0 mm
11:12 2.9 °C 1.6 °C 1014.8 hPa ENE 3.2 km/h 24.1 km/h 91 % 0.0 mm
11:17 3.0 °C 1.7 °C 1014.8 hPa ENE 17.7 km/h 24.1 km/h 91 % 0.0 mm
11:22 3.0 °C 1.5 °C 1015.1 hPa ENE 14.5 km/h 25.7 km/h 90 % 0.0 mm
11:27 3.1 °C 1.6 °C 1015.1 hPa ENE 20.9 km/h 27.4 km/h 90 % 0.0 mm
11:32 3.2 °C 1.7 °C 1015.5 hPa NE 6.4 km/h 27.4 km/h 90 % 0.0 mm
11:37 3.2 °C 1.4 °C 1015.5 hPa ENE 12.9 km/h 27.4 km/h 88 % 0.0 mm
11:42 3.4 °C 1.6 °C 1015.5 hPa ENE 6.4 km/h 27.4 km/h 88 % 0.0 mm
11:47 3.9 °C 2.1 °C 1015.5 hPa ESE 12.9 km/h 27.4 km/h 88 % 0.0 mm
11:52 3.9 °C 1.9 °C 1015.5 hPa NE 8.0 km/h 27.4 km/h 87 % 0.0 mm
11:57 3.9 °C 1.9 °C 1015.8 hPa East 22.5 km/h 25.7 km/h 87 % 0.0 mm
12:02 3.7 °C 1.4 °C 1015.8 hPa NE 12.9 km/h 30.6 km/h 85 % 0.0 mm
12:12 3.7 °C 1.4 °C 1016.1 hPa NE 6.4 km/h 30.6 km/h 85 % 0.0 mm
12:17 3.7 °C 1.1 °C 1016.1 hPa East 6.4 km/h 30.6 km/h 83 % 0.0 mm
12:22 3.6 °C 1.0 °C 1016.5 hPa SE 4.8 km/h 27.4 km/h 83 % 0.0 mm
12:27 3.4 °C 0.8 °C 1016.5 hPa SE 8.0 km/h 27.4 km/h 83 % 0.0 mm
12:32 3.3 °C 0.7 °C 1016.5 hPa NNE 11.3 km/h 27.4 km/h 83 % 0.0 mm
12:42 3.4 °C 1.0 °C 1016.8 hPa ENE 6.4 km/h 22.5 km/h 84 % 0.0 mm
12:52 3.4 °C 0.8 °C 1016.8 hPa East 3.2 km/h 29.0 km/h 83 % 0.0 mm
12:57 3.3 °C 0.7 °C 1016.8 hPa ENE 16.1 km/h 24.1 km/h 83 % 0.0 mm
13:02 3.3 °C 0.7 °C 1016.8 hPa East 8.0 km/h 24.1 km/h 83 % 0.0 mm
13:07 3.4 °C 0.8 °C 1017.2 hPa ENE 12.9 km/h 24.1 km/h 83 % 0.0 mm
13:12 3.4 °C 0.8 °C 1017.2 hPa ENE 3.2 km/h 22.5 km/h 83 % 0.0 mm
13:22 3.3 °C 0.5 °C 1017.2 hPa ENE 8.0 km/h 27.4 km/h 82 % 0.0 mm
13:27 3.3 °C 0.4 °C 1017.2 hPa SE 9.7 km/h 27.4 km/h 81 % 0.0 mm
13:32 3.4 °C 0.6 °C 1017.2 hPa NE 16.1 km/h 29.0 km/h 82 % 0.0 mm
13:37 3.6 °C 0.8 °C 1017.5 hPa South 6.4 km/h 29.0 km/h 82 % 0.0 mm
13:42 3.6 °C 0.8 °C 1017.5 hPa NE 14.5 km/h 29.0 km/h 82 % 0.0 mm
13:47 3.5 °C 1.1 °C 1017.8 hPa East 9.7 km/h 25.7 km/h 84 % 0.0 mm
13:52 3.3 °C 0.9 °C 1017.8 hPa NE 17.7 km/h 27.4 km/h 84 % 0.0 mm
13:57 3.3 °C 1.2 °C 1017.8 hPa NE 19.3 km/h 27.4 km/h 86 % 0.0 mm
14:02 3.3 °C 1.0 °C 1017.8 hPa NE 14.5 km/h 27.4 km/h 85 % 0.0 mm
14:07 3.3 °C 0.9 °C 1017.8 hPa ENE 11.3 km/h 27.4 km/h 84 % 0.0 mm
14:12 3.5 °C 1.1 °C 1018.2 hPa NE 6.4 km/h 27.4 km/h 84 % 0.0 mm
14:17 3.6 °C 0.8 °C 1018.2 hPa SE 8.0 km/h 25.7 km/h 82 % 0.0 mm
14:32 3.6 °C 0.3 °C 1018.5 hPa ESE 6.4 km/h 25.7 km/h 79 % 0.0 mm
14:37 3.7 °C 0.4 °C 1018.5 hPa North 9.7 km/h 25.7 km/h 79 % 0.0 mm
14:42 3.8 °C 0.5 °C 1018.5 hPa ESE 3.2 km/h 25.7 km/h 79 % 0.0 mm
14:47 3.8 °C 0.3 °C 1018.8 hPa SE 1.6 km/h 19.3 km/h 78 % 0.0 mm
14:52 3.9 °C 0.6 °C 1018.8 hPa ENE 12.9 km/h 19.3 km/h 79 % 0.0 mm
14:57 4.1 °C 0.8 °C 1018.8 hPa NNE 16.1 km/h 17.7 km/h 79 % 0.0 mm
15:02 4.1 °C 0.3 °C 1018.8 hPa East 12.9 km/h 19.3 km/h 76 % 0.0 mm
15:07 4.2 °C 0.3 °C 1018.8 hPa ENE 3.2 km/h 19.3 km/h 76 % 0.0 mm
15:12 4.2 °C 0.0 °C 1018.8 hPa East 6.4 km/h 22.5 km/h 74 % 0.0 mm
15:17 4.2 °C -0.4 °C 1018.8 hPa East 17.7 km/h 32.2 km/h 72 % 0.0 mm
15:22 4.2 °C -0.6 °C 1019.2 hPa ENE 16.1 km/h 32.2 km/h 71 % 0.0 mm
15:27 4.3 °C -0.1 °C 1019.2 hPa ESE 8.0 km/h 32.2 km/h 73 % 0.0 mm
15:32 4.5 °C -0.3 °C 1019.2 hPa NE 12.9 km/h 30.6 km/h 71 % 0.0 mm
15:37 4.4 °C -0.4 °C 1019.5 hPa NE 17.7 km/h 29.0 km/h 71 % 0.0 mm
15:42 4.3 °C -0.7 °C 1019.5 hPa NNE 24.1 km/h 27.4 km/h 70 % 0.0 mm
15:47 4.3 °C -0.7 °C 1019.5 hPa ENE 14.5 km/h 29.0 km/h 70 % 0.0 mm
15:52 4.4 °C -0.6 °C 1019.9 hPa NNE 12.9 km/h 30.6 km/h 70 % 0.0 mm
15:57 4.3 °C -0.5 °C 1019.9 hPa ENE 8.0 km/h 30.6 km/h 71 % 0.0 mm
16:02 4.1 °C -0.7 °C 1019.9 hPa East 9.7 km/h 30.6 km/h 71 % 0.0 mm
16:12 4.4 °C -0.4 °C 1019.9 hPa ENE 14.5 km/h 20.9 km/h 71 % 0.0 mm
16:17 4.5 °C -0.7 °C 1020.2 hPa ENE 14.5 km/h 25.7 km/h 69 % 0.0 mm
16:22 4.5 °C -0.7 °C 1020.2 hPa ENE 8.0 km/h 27.4 km/h 69 % 0.0 mm
16:27 4.5 °C -0.3 °C 1020.2 hPa ESE 8.0 km/h 27.4 km/h 71 % 0.0 mm
16:32 4.5 °C -0.5 °C 1020.5 hPa ESE 9.7 km/h 27.4 km/h 70 % 0.0 mm
16:37 4.5 °C -0.5 °C 1020.5 hPa NNE 19.3 km/h 24.1 km/h 70 % 0.0 mm
16:42 4.5 °C -0.7 °C 1020.5 hPa NNE 9.7 km/h 24.1 km/h 69 % 0.0 mm
16:47 4.4 °C -0.6 °C 1020.5 hPa ENE 11.3 km/h 25.7 km/h 70 % 0.0 mm
16:52 4.4 °C -0.4 °C 1020.9 hPa East 11.3 km/h 25.7 km/h 71 % 0.0 mm
16:57 4.4 °C 0.0 °C 1020.9 hPa ENE 14.5 km/h 22.5 km/h 73 % 0.0 mm
17:02 4.6 °C -0.2 °C 1020.9 hPa East 12.9 km/h 27.4 km/h 71 % 0.0 mm
17:07 4.7 °C -0.3 °C 1020.9 hPa East 12.9 km/h 27.4 km/h 70 % 0.0 mm
17:12 4.7 °C -0.3 °C 1021.2 hPa ENE 19.3 km/h 27.4 km/h 70 % 0.0 mm
17:17 4.8 °C -0.4 °C 1021.2 hPa ENE 6.4 km/h 24.1 km/h 69 % 0.0 mm
17:22 4.8 °C -0.4 °C 1021.2 hPa ENE 9.7 km/h 19.3 km/h 69 % 0.0 mm
17:27 4.7 °C -0.3 °C 1021.2 hPa East 12.9 km/h 19.3 km/h 70 % 0.0 mm
17:32 4.7 °C -0.3 °C 1021.2 hPa SSE 8.0 km/h 20.9 km/h 70 % 0.0 mm
17:37 4.5 °C -0.3 °C 1021.6 hPa ENE 8.0 km/h 22.5 km/h 71 % 0.0 mm
17:42 4.3 °C -0.7 °C 1021.6 hPa ENE 14.5 km/h 22.5 km/h 70 % 0.0 mm
17:47 4.2 °C -0.6 °C 1021.6 hPa East 9.7 km/h 24.1 km/h 71 % 0.0 mm
17:57 4.0 °C -1.0 °C 1021.6 hPa NE 12.9 km/h 20.9 km/h 70 % 0.0 mm
18:02 3.8 °C -1.0 °C 1021.9 hPa East 8.0 km/h 17.7 km/h 71 % 0.0 mm
18:17 3.4 °C -1.0 °C 1022.2 hPa NNE 8.0 km/h 20.9 km/h 73 % 0.0 mm
18:22 3.3 °C -0.9 °C 1022.2 hPa ENE 3.2 km/h 22.5 km/h 74 % 0.0 mm
18:27 3.1 °C -1.1 °C 1022.2 hPa ENE 3.2 km/h 22.5 km/h 74 % 0.0 mm
18:32 3.0 °C -1.2 °C 1022.6 hPa ESE 4.8 km/h 16.1 km/h 74 % 0.0 mm
18:37 2.9 °C -1.3 °C 1022.6 hPa East 3.2 km/h 19.3 km/h 74 % 0.0 mm
18:42 2.9 °C -1.3 °C 1022.9 hPa ENE 3.2 km/h 19.3 km/h 74 % 0.0 mm
18:52 2.9 °C -1.3 °C 1022.9 hPa NE 6.4 km/h 16.1 km/h 74 % 0.0 mm
18:57 2.8 °C -1.4 °C 1023.2 hPa South 4.8 km/h 16.1 km/h 74 % 0.0 mm
19:02 2.8 °C -1.4 °C 1023.2 hPa SSE 3.2 km/h 16.1 km/h 74 % 0.0 mm
19:07 2.7 °C -1.1 °C 1023.2 hPa NNE 4.8 km/h 16.1 km/h 76 % 0.0 mm
19:12 2.6 °C -1.2 °C 1023.6 hPa NE 6.4 km/h 14.5 km/h 76 % 0.0 mm
19:17 2.6 °C -1.2 °C 1023.6 hPa NE 4.8 km/h 14.5 km/h 76 % 0.0 mm
19:22 2.5 °C -1.1 °C 1023.9 hPa ENE 8.0 km/h 14.5 km/h 77 % 0.0 mm
19:27 2.4 °C -1.2 °C 1023.9 hPa SE 4.8 km/h 14.5 km/h 77 % 0.0 mm
19:32 2.4 °C -1.4 °C 1023.9 hPa NNE 9.7 km/h 11.3 km/h 76 % 0.0 mm
19:37 2.2 °C -1.4 °C 1023.9 hPa East 1.6 km/h 12.9 km/h 77 % 0.0 mm
19:42 2.2 °C -1.2 °C 1024.3 hPa ENE 4.8 km/h 12.9 km/h 78 % 0.0 mm
19:47 2.2 °C -1.4 °C 1024.3 hPa East 3.2 km/h 14.5 km/h 77 % 0.0 mm
19:52 2.2 °C -1.2 °C 1024.3 hPa ENE 1.6 km/h 14.5 km/h 78 % 0.0 mm
19:57 2.1 °C -1.3 °C 1024.3 hPa NE 4.8 km/h 14.5 km/h 78 % 0.0 mm
20:02 1.9 °C -1.4 °C 1024.3 hPa NE 6.4 km/h 8.0 km/h 79 % 0.0 mm
20:07 2.0 °C -1.3 °C 1024.3 hPa ENE 4.8 km/h 12.9 km/h 79 % 0.0 mm
20:12 1.8 °C -1.5 °C 1024.3 hPa NE 3.2 km/h 12.9 km/h 79 % 0.0 mm
20:17 1.6 °C -1.3 °C 1024.6 hPa ENE 1.6 km/h 9.7 km/h 81 % 0.0 mm
20:27 1.5 °C -1.2 °C 1024.9 hPa SE 1.6 km/h 8.0 km/h 82 % 0.0 mm
20:32 1.5 °C -1.2 °C 1024.9 hPa ENE 6.4 km/h 8.0 km/h 82 % 0.0 mm
20:42 1.7 °C -1.0 °C 1025.3 hPa ESE 1.6 km/h 8.0 km/h 82 % 0.0 mm
20:47 1.7 °C -0.9 °C 1025.3 hPa ENE 1.6 km/h 8.0 km/h 83 % 0.0 mm
20:52 2.0 °C -0.6 °C 1025.3 hPa East 1.6 km/h 9.7 km/h 83 % 0.0 mm
20:57 2.1 °C -0.5 °C 1025.3 hPa NE 9.7 km/h 9.7 km/h 83 % 0.0 mm
21:02 2.3 °C -0.6 °C 1025.3 hPa ENE 1.6 km/h 11.3 km/h 81 % 0.0 mm
21:07 2.3 °C -0.6 °C 1025.6 hPa ENE 3.2 km/h 11.3 km/h 81 % 0.0 mm
21:12 2.2 °C -0.6 °C 1025.6 hPa NE 3.2 km/h 11.3 km/h 82 % 0.0 mm
21:17 2.0 °C -0.6 °C 1025.6 hPa NE 6.4 km/h 9.7 km/h 83 % 0.0 mm
21:22 2.1 °C -0.5 °C 1025.6 hPa NE 4.8 km/h 11.3 km/h 83 % 0.0 mm
21:27 2.3 °C -0.3 °C 1025.6 hPa NNE 4.8 km/h 11.3 km/h 83 % 0.0 mm
21:32 2.4 °C -0.2 °C 1026.0 hPa NE 4.8 km/h 11.3 km/h 83 % 0.0 mm
21:37 2.5 °C -0.1 °C 1026.0 hPa NE 6.4 km/h 9.7 km/h 83 % 0.0 mm
21:42 2.6 °C 0.0 °C 1026.0 hPa ESE 1.6 km/h 9.7 km/h 83 % 0.0 mm
21:52 2.6 °C 0.0 °C 1026.0 hPa ENE 14.5 km/h 19.3 km/h 83 % 0.0 mm
21:57 2.7 °C -0.1 °C 1026.0 hPa East 11.3 km/h 19.3 km/h 82 % 0.0 mm
22:02 2.7 °C -0.2 °C 1026.3 hPa ENE 8.0 km/h 19.3 km/h 81 % 0.0 mm
22:12 2.4 °C -0.4 °C 1026.3 hPa East 3.2 km/h 19.3 km/h 82 % 0.0 mm
22:17 2.3 °C -0.3 °C 1026.3 hPa NNE 12.9 km/h 17.7 km/h 83 % 0.0 mm
22:22 2.2 °C -0.2 °C 1026.6 hPa SE 4.8 km/h 16.1 km/h 84 % 0.0 mm
22:27 2.2 °C -0.1 °C 1026.6 hPa ENE 6.4 km/h 16.1 km/h 85 % 0.0 mm
22:32 2.1 °C -0.2 °C 1026.6 hPa NE 6.4 km/h 16.1 km/h 85 % 0.0 mm
22:37 2.0 °C -0.3 °C 1026.6 hPa NE 8.0 km/h 14.5 km/h 85 % 0.0 mm
22:42 1.9 °C -0.4 °C 1026.6 hPa ESE 4.8 km/h 14.5 km/h 85 % 0.0 mm
22:47 1.8 °C -0.3 °C 1027.0 hPa NE 12.9 km/h 16.1 km/h 86 % 0.0 mm
22:52 1.8 °C -0.3 °C 1027.0 hPa NE 6.4 km/h 16.1 km/h 86 % 0.0 mm
22:57 1.7 °C -0.4 °C 1027.0 hPa NE 6.4 km/h 16.1 km/h 86 % 0.0 mm
23:02 1.6 °C -0.3 °C 1027.3 hPa NNE 9.7 km/h 16.1 km/h 87 % 0.0 mm
23:07 1.6 °C -0.5 °C 1027.3 hPa ENE 12.9 km/h 16.1 km/h 86 % 0.0 mm
23:12 1.6 °C -0.5 °C 1027.3 hPa NNE 6.4 km/h 14.5 km/h 86 % 0.0 mm
23:17 1.7 °C -0.4 °C 1027.7 hPa NNE 11.3 km/h 16.1 km/h 86 % 0.0 mm
23:22 1.6 °C -0.5 °C 1027.7 hPa East 6.4 km/h 17.7 km/h 86 % 0.0 mm
23:27 1.6 °C -0.6 °C 1027.7 hPa ESE 4.8 km/h 17.7 km/h 85 % 0.0 mm
23:32 1.6 °C -0.6 °C 1027.7 hPa NE 12.9 km/h 17.7 km/h 85 % 0.0 mm
23:37 1.6 °C -0.6 °C 1027.7 hPa ENE 6.4 km/h 17.7 km/h 85 % 0.0 mm
23:47 1.4 °C -0.8 °C 1027.7 hPa ENE 8.0 km/h 16.1 km/h 85 % 0.0 mm
23:52 1.4 °C -1.0 °C 1027.7 hPa NNE 12.9 km/h 16.1 km/h 84 % 0.0 mm
23:57 1.4 °C -1.0 °C 1027.7 hPa ENE 4.8 km/h 16.1 km/h 84 % 0.0 mm
Meteo18
Compliments of Weather Underground - 4 mb

Script developed by  Jim McMurry - jmcmurry@mwt.net Adapted for the template by  Wim van der Kuil - Leuven-Template.eu

You find our weather info also at:

European Weather Network

Weather Underground

Equipment we use:

Weather-station
Davis Vue

Weather-program
Meteohub

Weather-server
Raspberry PI 2 B+

Provider
1 and 1

Davis Vue

Meteohub

Raspberry PI 2 B+

1 and 1